createdAt,value
2023-01-18T00:05:41.977Z,984.92
2023-01-18T00:12:05.002Z,984.8
2023-01-18T00:18:25.082Z,984.82
2023-01-18T00:24:47.978Z,984.82
2023-01-18T00:31:08.016Z,984.8
2023-01-18T00:37:31.074Z,984.8
2023-01-18T00:43:50.975Z,984.82
2023-01-18T00:50:13.978Z,984.96
2023-01-18T00:56:34.030Z,985.02
2023-01-18T01:02:57.311Z,985.06
2023-01-18T01:09:17.021Z,985.06
2023-01-18T01:15:40.201Z,985.02
2023-01-18T01:22:00.025Z,985.06
2023-01-18T01:28:22.999Z,985.12
2023-01-18T01:34:43.027Z,985.19
2023-01-18T01:41:06.104Z,985.29
2023-01-18T01:47:25.979Z,985.39
2023-01-18T01:53:49.021Z,985.45
2023-01-18T02:00:09.009Z,985.45
2023-01-18T02:06:32.024Z,985.43
2023-01-18T02:12:52.009Z,985.47
2023-01-18T02:19:15.056Z,985.51
2023-01-18T02:25:34.971Z,985.59
2023-01-18T02:31:58.134Z,985.61
2023-01-18T02:38:17.979Z,985.68
2023-01-18T02:44:40.991Z,985.78
2023-01-18T02:51:01.050Z,985.88
2023-01-18T02:57:24.036Z,985.92
2023-01-18T03:03:44.030Z,986
2023-01-18T03:10:07.091Z,986.02
2023-01-18T03:16:27.032Z,986.02
2023-01-18T03:22:50.058Z,986.08
2023-01-18T03:29:10.028Z,986.06
2023-01-18T03:35:33.063Z,986.06
2023-01-18T03:41:53.048Z,986.13
2023-01-18T03:48:16.091Z,986.21
2023-01-18T03:54:35.981Z,986.27
2023-01-18T04:00:59.067Z,986.33
2023-01-18T04:23:27.000Z,986.66
2023-01-18T04:29:50.031Z,986.7
2023-01-18T04:36:09.979Z,986.8
2023-01-18T04:42:33.048Z,986.8
2023-01-18T04:48:52.982Z,986.88
2023-01-18T04:55:16.054Z,986.94
2023-01-18T05:01:36.087Z,986.98
2023-01-18T05:07:59.024Z,987.05
2023-01-18T05:14:19.075Z,987.11
2023-01-18T05:20:41.995Z,987.23
2023-01-18T05:27:02.043Z,987.33
2023-01-18T05:33:25.075Z,987.59
2023-01-18T05:39:45.089Z,987.71
2023-01-18T05:46:08.087Z,987.84
2023-01-18T05:52:27.979Z,987.9
2023-01-18T05:58:51.004Z,987.94
2023-01-18T06:05:10.980Z,988
2023-01-18T06:11:34.012Z,988.1
2023-01-18T06:17:54.033Z,988.2
2023-01-18T06:24:17.022Z,988.29
2023-01-18T06:30:36.987Z,988.41
2023-01-18T06:37:00.052Z,988.49
2023-01-18T06:43:19.999Z,988.61
2023-01-18T06:49:42.992Z,988.71
2023-01-18T06:56:03.122Z,988.8
2023-01-18T07:02:26.029Z,988.9
2023-01-18T07:08:45.986Z,989
2023-01-18T07:15:20.704Z,989.12
2023-01-18T07:21:29.027Z,989.2
2023-01-18T07:27:52.080Z,989.31
2023-01-18T07:34:12.029Z,989.35
2023-01-18T07:40:34.992Z,989.41
2023-01-18T07:46:55.011Z,989.47
2023-01-18T07:53:18.061Z,989.57
2023-01-18T07:59:38.003Z,989.68
2023-01-18T08:06:01.017Z,989.76
2023-01-18T08:12:21.038Z,989.9
2023-01-18T08:18:44.093Z,990.06
2023-01-18T08:25:04.018Z,990.18
2023-01-18T08:31:27.252Z,990.26
2023-01-18T08:37:47.020Z,990.34
2023-01-18T08:44:09.999Z,990.45
2023-01-18T08:50:30.103Z,990.55
2023-01-18T08:56:53.009Z,990.69
2023-01-18T09:03:14.035Z,990.75
2023-01-18T09:09:37.127Z,990.79
2023-01-18T09:15:57.064Z,990.9
2023-01-18T09:31:48.893Z,991.1
2023-01-18T09:38:07.979Z,991.16
2023-01-18T09:44:31.001Z,991.22
2023-01-18T09:50:51.072Z,991.28
2023-01-18T09:57:14.017Z,991.33
2023-01-18T10:03:34.068Z,991.41
2023-01-18T10:09:57.006Z,991.47
2023-01-18T10:16:17.003Z,991.47
2023-01-18T10:22:40.112Z,991.53
2023-01-18T10:29:00.014Z,991.55
2023-01-18T10:35:22.989Z,991.61
2023-01-18T10:41:43.054Z,991.59
2023-01-18T10:48:06.011Z,991.61
2023-01-18T10:54:26.066Z,991.61
2023-01-18T11:00:49.062Z,991.69
2023-01-18T11:07:09.099Z,991.73
2023-01-18T11:13:32.014Z,991.75
2023-01-18T11:19:52.001Z,991.71
2023-01-18T11:26:15.085Z,991.69
2023-01-18T11:32:34.982Z,991.73
2023-01-18T11:38:58.178Z,991.77
2023-01-18T11:45:18.012Z,991.77
2023-01-18T11:51:40.978Z,991.82
2023-01-18T11:58:01.479Z,991.84
2023-01-18T12:04:24.007Z,991.9
2023-01-18T12:10:44.010Z,991.88
2023-01-18T12:17:07.031Z,991.9
2023-01-18T12:23:27.034Z,991.92
2023-01-18T12:29:50.003Z,991.94
2023-01-18T12:36:09.998Z,991.96
2023-01-18T12:42:33.072Z,991.98
2023-01-18T12:48:53.240Z,991.98
2023-01-18T12:55:16.307Z,991.98
2023-01-18T13:01:37.355Z,991.94
2023-01-18T13:08:00.284Z,991.94
2023-01-18T13:14:20.106Z,991.94
2023-01-18T13:20:43.076Z,991.98
2023-01-18T13:27:03.011Z,992
2023-01-18T13:33:27.081Z,992.08
2023-01-18T13:39:47.090Z,992.12
2023-01-18T13:46:10.063Z,992.18
2023-01-18T13:52:30.005Z,992.25
2023-01-18T13:58:53.088Z,992.31
2023-01-18T14:05:13.048Z,992.37
2023-01-18T14:11:36.055Z,992.43
2023-01-18T14:27:25.020Z,992.71
2023-01-18T14:33:44.979Z,992.81
2023-01-18T14:40:07.990Z,992.87
2023-01-18T14:46:28.021Z,992.89
2023-01-18T14:52:51.015Z,992.95
2023-01-18T14:59:10.982Z,993.01
2023-01-18T15:05:34.074Z,993.1
2023-01-18T15:11:54.003Z,993.2
2023-01-18T15:18:17.025Z,993.3
2023-01-18T15:24:37.011Z,993.34
2023-01-18T15:31:00.015Z,993.42
2023-01-18T15:37:20.002Z,993.49
2023-01-18T15:43:43.103Z,993.57
2023-01-18T15:50:02.981Z,993.63
2023-01-18T15:56:26.049Z,993.69
2023-01-18T16:02:46.034Z,993.73
2023-01-18T16:09:11.461Z,993.77
2023-01-18T16:15:29.014Z,993.83
2023-01-18T16:21:52.096Z,993.85
2023-01-18T16:28:12.069Z,993.91
2023-01-18T16:34:35.055Z,993.96
2023-01-18T16:40:55.020Z,994
2023-01-18T16:47:18.029Z,994.06
2023-01-18T16:53:38.033Z,994.08
2023-01-18T17:00:01.008Z,994.2
2023-01-18T17:06:20.987Z,994.26
2023-01-18T17:12:44.060Z,994.36
2023-01-18T17:19:04.092Z,994.43
2023-01-18T17:25:26.977Z,994.55
2023-01-18T17:31:52.056Z,994.65
2023-01-18T17:38:17.182Z,994.77
2023-01-18T17:44:36.445Z,994.83
2023-01-18T17:50:53.079Z,994.9
2023-01-18T17:57:13.027Z,994.9
2023-01-18T18:03:35.973Z,994.98
2023-01-18T18:09:55.984Z,995.02
2023-01-18T18:16:19.512Z,995.12
2023-01-18T18:22:39.040Z,995.24
2023-01-18T18:29:02.008Z,995.26
2023-01-18T18:35:25.706Z,995.3
2023-01-18T18:41:44.991Z,995.42
2023-01-18T18:48:05.029Z,995.5
2023-01-18T18:54:28.025Z,995.59
2023-01-18T19:00:48.069Z,995.67
2023-01-18T19:07:10.973Z,995.65
2023-01-18T19:32:16.011Z,995.95
2023-01-18T19:38:40.829Z,996.01
2023-01-18T19:44:59.522Z,996.01
2023-01-18T19:51:22.821Z,996.05
2023-01-18T19:57:42.044Z,996.12
2023-01-18T20:04:02.071Z,996.16
2023-01-18T20:10:25.055Z,996.22
2023-01-18T20:16:46.156Z,996.22
2023-01-18T20:23:08.060Z,996.28
2023-01-18T20:29:28.049Z,996.34
2023-01-18T20:35:50.986Z,996.4
2023-01-18T20:42:11.052Z,996.48
2023-01-18T20:48:34.084Z,996.53
2023-01-18T20:54:53.996Z,996.59
2023-01-18T21:01:17.167Z,996.67
2023-01-18T21:07:37.032Z,996.71
2023-01-18T21:14:00.021Z,996.77
2023-01-18T21:20:20.035Z,996.85
2023-01-18T21:26:43.014Z,996.87
2023-01-18T21:33:03.010Z,996.95
2023-01-18T21:39:26.116Z,996.97
2023-01-18T21:45:46.054Z,996.95
2023-01-18T21:52:09.046Z,996.99
2023-01-18T21:58:28.978Z,997
2023-01-18T22:04:51.997Z,997.06
2023-01-18T22:11:11.969Z,997.08
2023-01-18T22:17:35.111Z,997.14
2023-01-18T22:23:55.019Z,997.2
2023-01-18T22:30:17.995Z,997.26
2023-01-18T22:36:37.985Z,997.28
2023-01-18T22:43:01.013Z,997.34
2023-01-18T22:49:20.974Z,997.38
2023-01-18T22:55:43.983Z,997.4
2023-01-18T23:19:59.006Z,997.59
2023-01-18T23:26:19.032Z,997.61
2023-01-18T23:32:42.024Z,997.61
2023-01-18T23:39:02.002Z,997.59
2023-01-18T23:45:25.033Z,997.57
2023-01-18T23:51:44.981Z,997.61
2023-01-18T23:58:08.103Z,997.63
